sensor_id;sensor_type;location;lat;lon;timestamp;pressure;altitude;pressure_sealevel;temperature;humidity
65832;BME280;52593;42.648;23.332;2023-09-19T00:00:59;94938.13;;;16.41;70.88
65832;BME280;52593;42.648;23.332;2023-09-19T00:03:25;94938.53;;;16.52;70.80
65832;BME280;52593;42.648;23.332;2023-09-19T00:05:51;94942.72;;;16.48;71.34
65832;BME280;52593;42.648;23.332;2023-09-19T00:08:16;94933.75;;;16.54;70.63
65832;BME280;52593;42.648;23.332;2023-09-19T00:10:42;94934.75;;;16.73;69.34
65832;BME280;52593;42.648;23.332;2023-09-19T00:13:08;94934.16;;;16.57;70.36
65832;BME280;52593;42.648;23.332;2023-09-19T00:15:40;94929.59;;;16.51;70.51
65832;BME280;52593;42.648;23.332;2023-09-19T00:18:06;94928.78;;;16.51;70.46
65832;BME280;52593;42.648;23.332;2023-09-19T00:20:32;94925.88;;;16.52;70.63
65832;BME280;52593;42.648;23.332;2023-09-19T00:22:58;94933.78;;;16.40;71.20
65832;BME280;52593;42.648;23.332;2023-09-19T00:25:24;94925.66;;;16.54;70.83
65832;BME280;52593;42.648;23.332;2023-09-19T00:27:50;94918.78;;;16.51;71.20
65832;BME280;52593;42.648;23.332;2023-09-19T00:30:17;94914.66;;;16.55;71.15
65832;BME280;52593;42.648;23.332;2023-09-19T00:32:49;94915.47;;;16.43;71.55
65832;BME280;52593;42.648;23.332;2023-09-19T00:35:20;94920.28;;;16.40;73.11
65832;BME280;52593;42.648;23.332;2023-09-19T00:37:45;94918.22;;;16.36;72.67
65832;BME280;52593;42.648;23.332;2023-09-19T00:40:11;94914.06;;;16.20;73.17
65832;BME280;52593;42.648;23.332;2023-09-19T00:42:46;94902.63;;;16.38;72.76
65832;BME280;52593;42.648;23.332;2023-09-19T00:45:13;94909.50;;;16.20;73.36
65832;BME280;52593;42.648;23.332;2023-09-19T00:47:41;94913.84;;;16.21;73.30
65832;BME280;52593;42.648;23.332;2023-09-19T00:50:08;94915.72;;;16.08;73.65
65832;BME280;52593;42.648;23.332;2023-09-19T00:52:37;94911.59;;;16.05;74.28
65832;BME280;52593;42.648;23.332;2023-09-19T00:55:05;94918.03;;;15.97;74.16
65832;BME280;52593;42.648;23.332;2023-09-19T00:57:32;94921.13;;;16.21;73.24
65832;BME280;52593;42.648;23.332;2023-09-19T00:59:58;94918.88;;;16.11;73.96
65832;BME280;52593;42.648;23.332;2023-09-19T01:02:25;94917.19;;;15.97;74.30
65832;BME280;52593;42.648;23.332;2023-09-19T01:04:54;94916.78;;;16.00;74.23
65832;BME280;52593;42.648;23.332;2023-09-19T01:07:20;94915.13;;;15.92;74.80
65832;BME280;52593;42.648;23.332;2023-09-19T01:09:47;94915.31;;;15.91;75.25
65832;BME280;52593;42.648;23.332;2023-09-19T01:12:17;94916.97;;;15.98;74.45
65832;BME280;52593;42.648;23.332;2023-09-19T01:14:59;94911.00;;;15.90;74.82
65832;BME280;52593;42.648;23.332;2023-09-19T01:17:34;94913.66;;;15.83;75.61
65832;BME280;52593;42.648;23.332;2023-09-19T01:20:08;94910.94;;;15.76;76.01
65832;BME280;52593;42.648;23.332;2023-09-19T01:23:00;94916.81;;;15.86;75.15
65832;BME280;52593;42.648;23.332;2023-09-19T01:31:04;94925.44;;;15.48;76.61
65832;BME280;52593;42.648;23.332;2023-09-19T01:33:57;94916.34;;;15.76;76.07
65832;BME280;52593;42.648;23.332;2023-09-19T01:36:23;94915.47;;;15.56;76.66
65832;BME280;52593;42.648;23.332;2023-09-19T01:38:50;94908.84;;;15.51;77.40
65832;BME280;52593;42.648;23.332;2023-09-19T01:41:24;94904.69;;;15.42;78.32
65832;BME280;52593;42.648;23.332;2023-09-19T01:43:51;94906.94;;;15.39;77.98
65832;BME280;52593;42.648;23.332;2023-09-19T01:46:25;94908.81;;;15.31;78.34
65832;BME280;52593;42.648;23.332;2023-09-19T01:49:07;94908.38;;;15.28;78.33
65832;BME280;52593;42.648;23.332;2023-09-19T01:52:09;94905.44;;;15.09;78.57
65832;BME280;52593;42.648;23.332;2023-09-19T01:54:52;94907.31;;;15.15;79.37
65832;BME280;52593;42.648;23.332;2023-09-19T01:57:26;94902.06;;;15.01;79.51
65832;BME280;52593;42.648;23.332;2023-09-19T02:00:06;94909.88;;;14.75;81.01
65832;BME280;52593;42.648;23.332;2023-09-19T02:02:37;94919.16;;;14.73;80.96
65832;BME280;52593;42.648;23.332;2023-09-19T02:05:04;94924.47;;;14.59;82.10
65832;BME280;52593;42.648;23.332;2023-09-19T02:07:30;94928.72;;;14.47;82.61
65832;BME280;52593;42.648;23.332;2023-09-19T02:10:00;94926.41;;;14.37;83.68
65832;BME280;52593;42.648;23.332;2023-09-19T02:12:27;94924.94;;;14.35;83.89
65832;BME280;52593;42.648;23.332;2023-09-19T02:14:52;94922.03;;;14.36;83.64
65832;BME280;52593;42.648;23.332;2023-09-19T02:17:18;94913.38;;;14.41;83.97
65832;BME280;52593;42.648;23.332;2023-09-19T02:19:44;94915.22;;;14.34;84.13
65832;BME280;52593;42.648;23.332;2023-09-19T02:22:10;94922.03;;;14.36;84.52
65832;BME280;52593;42.648;23.332;2023-09-19T02:24:38;94921.44;;;14.41;84.17
65832;BME280;52593;42.648;23.332;2023-09-19T02:27:04;94920.53;;;14.27;84.88
65832;BME280;52593;42.648;23.332;2023-09-19T02:29:30;94918.94;;;14.33;84.91
65832;BME280;52593;42.648;23.332;2023-09-19T02:31:56;94913.53;;;14.33;85.01
65832;BME280;52593;42.648;23.332;2023-09-19T02:34:22;94898.91;;;14.42;84.76
65832;BME280;52593;42.648;23.332;2023-09-19T02:36:48;94898.56;;;14.58;83.97
65832;BME280;52593;42.648;23.332;2023-09-19T02:39:13;94901.81;;;14.47;84.35
65832;BME280;52593;42.648;23.332;2023-09-19T02:41:39;94900.38;;;14.44;84.45
65832;BME280;52593;42.648;23.332;2023-09-19T02:44:04;94888.91;;;14.36;84.80
65832;BME280;52593;42.648;23.332;2023-09-19T02:46:33;94893.88;;;14.32;85.17
65832;BME280;52593;42.648;23.332;2023-09-19T02:48:59;94891.41;;;14.37;84.63
65832;BME280;52593;42.648;23.332;2023-09-19T02:51:24;94888.03;;;14.28;84.88
65832;BME280;52593;42.648;23.332;2023-09-19T02:53:50;94883.25;;;14.24;85.46
65832;BME280;52593;42.648;23.332;2023-09-19T02:56:18;94885.31;;;14.22;85.82
65832;BME280;52593;42.648;23.332;2023-09-19T02:58:43;94877.88;;;14.24;85.42
65832;BME280;52593;42.648;23.332;2023-09-19T03:01:12;94880.97;;;14.21;85.52
65832;BME280;52593;42.648;23.332;2023-09-19T03:03:37;94874.72;;;14.14;86.04
65832;BME280;52593;42.648;23.332;2023-09-19T03:06:05;94877.22;;;14.15;85.81
65832;BME280;52593;42.648;23.332;2023-09-19T03:08:31;94871.16;;;14.06;85.77
65832;BME280;52593;42.648;23.332;2023-09-19T03:10:56;94870.34;;;14.06;85.97
65832;BME280;52593;42.648;23.332;2023-09-19T03:13:22;94867.69;;;14.19;85.58
65832;BME280;52593;42.648;23.332;2023-09-19T03:15:47;94862.97;;;14.21;85.69
65832;BME280;52593;42.648;23.332;2023-09-19T03:18:15;94876.84;;;14.25;85.01
65832;BME280;52593;42.648;23.332;2023-09-19T03:20:41;94866.66;;;14.14;85.84
65832;BME280;52593;42.648;23.332;2023-09-19T03:23:06;94869.28;;;14.07;86.17
65832;BME280;52593;42.648;23.332;2023-09-19T03:25:36;94862.59;;;13.96;86.65
65832;BME280;52593;42.648;23.332;2023-09-19T03:28:02;94865.44;;;13.88;86.92
65832;BME280;52593;42.648;23.332;2023-09-19T03:30:31;94876.97;;;14.10;86.65
65832;BME280;52593;42.648;23.332;2023-09-19T03:32:58;94866.56;;;14.00;86.68
65832;BME280;52593;42.648;23.332;2023-09-19T03:35:23;94875.00;;;13.90;87.13
65832;BME280;52593;42.648;23.332;2023-09-19T03:37:48;94867.72;;;13.84;87.42
65832;BME280;52593;42.648;23.332;2023-09-19T03:40:14;94868.84;;;14.03;86.98
65832;BME280;52593;42.648;23.332;2023-09-19T03:42:41;94871.91;;;13.94;87.06
65832;BME280;52593;42.648;23.332;2023-09-19T03:45:08;94881.97;;;13.85;87.52
65832;BME280;52593;42.648;23.332;2023-09-19T03:47:38;94879.03;;;14.08;87.16
65832;BME280;52593;42.648;23.332;2023-09-19T03:50:05;94883.78;;;14.06;86.89
65832;BME280;52593;42.648;23.332;2023-09-19T03:52:30;94885.25;;;13.80;87.12
65832;BME280;52593;42.648;23.332;2023-09-19T03:54:56;94894.69;;;13.69;87.96
65832;BME280;52593;42.648;23.332;2023-09-19T03:57:21;94895.47;;;13.63;88.03
65832;BME280;52593;42.648;23.332;2023-09-19T03:59:47;94900.13;;;13.54;88.36
65832;BME280;52593;42.648;23.332;2023-09-19T04:02:13;94899.03;;;13.49;88.99
65832;BME280;52593;42.648;23.332;2023-09-19T04:04:50;94885.16;;;13.45;89.45
65832;BME280;52593;42.648;23.332;2023-09-19T04:07:16;94880.63;;;13.46;89.45
65832;BME280;52593;42.648;23.332;2023-09-19T04:09:42;94899.75;;;13.36;90.01
65832;BME280;52593;42.648;23.332;2023-09-19T04:12:07;94904.59;;;13.47;89.63
65832;BME280;52593;42.648;23.332;2023-09-19T04:14:36;94900.91;;;13.48;89.52
65832;BME280;52593;42.648;23.332;2023-09-19T04:17:02;94910.56;;;13.43;89.98
65832;BME280;52593;42.648;23.332;2023-09-19T04:19:28;94917.66;;;13.50;90.00
65832;BME280;52593;42.648;23.332;2023-09-19T04:21:53;94912.22;;;13.65;89.32
65832;BME280;52593;42.648;23.332;2023-09-19T04:24:19;94913.25;;;13.64;89.09
65832;BME280;52593;42.648;23.332;2023-09-19T04:26:45;94905.38;;;13.63;89.13
65832;BME280;52593;42.648;23.332;2023-09-19T04:29:10;94905.16;;;13.64;89.04
65832;BME280;52593;42.648;23.332;2023-09-19T04:31:36;94904.97;;;13.66;89.38
65832;BME280;52593;42.648;23.332;2023-09-19T04:34:03;94895.69;;;13.68;89.33
65832;BME280;52593;42.648;23.332;2023-09-19T04:36:28;94898.69;;;13.80;89.19
65832;BME280;52593;42.648;23.332;2023-09-19T04:38:55;94900.53;;;14.01;88.33
65832;BME280;52593;42.648;23.332;2023-09-19T04:41:20;94899.44;;;13.96;87.92
65832;BME280;52593;42.648;23.332;2023-09-19T04:43:47;94898.16;;;13.91;88.23
65832;BME280;52593;42.648;23.332;2023-09-19T04:46:14;94896.56;;;13.97;87.92
65832;BME280;52593;42.648;23.332;2023-09-19T04:48:40;94896.19;;;14.07;88.10
65832;BME280;52593;42.648;23.332;2023-09-19T04:51:06;94888.38;;;14.12;88.17
65832;BME280;52593;42.648;23.332;2023-09-19T04:53:32;94890.91;;;14.20;87.94
65832;BME280;52593;42.648;23.332;2023-09-19T04:55:57;94888.25;;;14.27;87.25
65832;BME280;52593;42.648;23.332;2023-09-19T04:58:23;94890.13;;;14.33;87.79
65832;BME280;52593;42.648;23.332;2023-09-19T05:00:48;94882.34;;;14.45;87.32
65832;BME280;52593;42.648;23.332;2023-09-19T05:03:16;94883.22;;;14.59;86.98
65832;BME280;52593;42.648;23.332;2023-09-19T05:05:42;94877.13;;;14.72;87.21
65832;BME280;52593;42.648;23.332;2023-09-19T05:08:08;94873.63;;;14.85;85.95
65832;BME280;52593;42.648;23.332;2023-09-19T05:10:35;94874.09;;;15.02;84.35
65832;BME280;52593;42.648;23.332;2023-09-19T05:13:04;94877.00;;;15.07;84.84
65832;BME280;52593;42.648;23.332;2023-09-19T05:15:30;94877.88;;;15.14;85.04
65832;BME280;52593;42.648;23.332;2023-09-19T05:17:56;94876.88;;;15.35;82.81
65832;BME280;52593;42.648;23.332;2023-09-19T05:20:22;94874.19;;;15.48;82.73
65832;BME280;52593;42.648;23.332;2023-09-19T05:23:06;94877.09;;;15.60;80.71
65832;BME280;52593;42.648;23.332;2023-09-19T05:25:37;94875.66;;;15.58;81.09
65832;BME280;52593;42.648;23.332;2023-09-19T05:28:07;94871.09;;;15.58;81.19
65832;BME280;52593;42.648;23.332;2023-09-19T05:30:33;94871.28;;;15.77;79.21
65832;BME280;52593;42.648;23.332;2023-09-19T05:33:01;94873.97;;;15.63;79.92
65832;BME280;52593;42.648;23.332;2023-09-19T05:35:27;94865.06;;;15.76;79.42
65832;BME280;52593;42.648;23.332;2023-09-19T05:37:53;94864.06;;;15.97;77.18
65832;BME280;52593;42.648;23.332;2023-09-19T05:40:20;94863.66;;;15.80;79.26
65832;BME280;52593;42.648;23.332;2023-09-19T05:42:46;94862.84;;;15.86;79.05
65832;BME280;52593;42.648;23.332;2023-09-19T05:45:12;94864.91;;;15.91;78.96
65832;BME280;52593;42.648;23.332;2023-09-19T05:47:39;94859.88;;;16.01;77.83
65832;BME280;52593;42.648;23.332;2023-09-19T05:50:06;94859.25;;;16.06;78.63
65832;BME280;52593;42.648;23.332;2023-09-19T05:52:37;94856.56;;;16.13;78.39
65832;BME280;52593;42.648;23.332;2023-09-19T05:55:04;94859.81;;;16.41;76.32
65832;BME280;52593;42.648;23.332;2023-09-19T05:57:32;94858.13;;;16.47;77.54
65832;BME280;52593;42.648;23.332;2023-09-19T05:59:57;94854.41;;;16.41;78.49
65832;BME280;52593;42.648;23.332;2023-09-19T06:02:23;94857.28;;;16.60;76.14
65832;BME280;52593;42.648;23.332;2023-09-19T06:04:48;94855.13;;;16.69;76.18
65832;BME280;52593;42.648;23.332;2023-09-19T06:07:14;94851.97;;;16.85;75.63
65832;BME280;52593;42.648;23.332;2023-09-19T06:09:41;94845.34;;;16.88;74.80
65832;BME280;52593;42.648;23.332;2023-09-19T06:12:07;94841.78;;;16.87;75.20
65832;BME280;52593;42.648;23.332;2023-09-19T06:14:32;94849.69;;;16.82;75.14
65832;BME280;52593;42.648;23.332;2023-09-19T06:16:58;94839.66;;;16.96;73.71
65832;BME280;52593;42.648;23.332;2023-09-19T06:19:25;94845.09;;;16.83;74.38
65832;BME280;52593;42.648;23.332;2023-09-19T06:21:52;94849.47;;;16.84;73.97
65832;BME280;52593;42.648;23.332;2023-09-19T06:24:19;94839.25;;;16.99;73.19
65832;BME280;52593;42.648;23.332;2023-09-19T06:26:45;94837.13;;;17.01;73.31
65832;BME280;52593;42.648;23.332;2023-09-19T06:29:10;94836.28;;;17.07;73.44
65832;BME280;52593;42.648;23.332;2023-09-19T06:31:36;94830.88;;;17.07;73.22
65832;BME280;52593;42.648;23.332;2023-09-19T06:34:03;94830.50;;;17.36;71.10
65832;BME280;52593;42.648;23.332;2023-09-19T06:36:29;94828.16;;;17.39;70.66
65832;BME280;52593;42.648;23.332;2023-09-19T06:38:54;94834.31;;;17.53;70.49
65832;BME280;52593;42.648;23.332;2023-09-19T06:41:20;94830.84;;;17.46;70.28
65832;BME280;52593;42.648;23.332;2023-09-19T06:43:50;94835.53;;;17.57;70.45
65832;BME280;52593;42.648;23.332;2023-09-19T06:46:18;94837.66;;;17.48;71.64
65832;BME280;52593;42.648;23.332;2023-09-19T06:48:44;94836.41;;;17.51;70.29
65832;BME280;52593;42.648;23.332;2023-09-19T06:51:09;94836.75;;;17.61;70.07
65832;BME280;52593;42.648;23.332;2023-09-19T06:53:35;94836.91;;;17.67;70.41
65832;BME280;52593;42.648;23.332;2023-09-19T06:56:01;94840.69;;;17.91;69.78
65832;BME280;52593;42.648;23.332;2023-09-19T06:58:27;94838.69;;;18.05;68.96
65832;BME280;52593;42.648;23.332;2023-09-19T07:00:53;94838.34;;;18.20;67.88
65832;BME280;52593;42.648;23.332;2023-09-19T07:03:19;94844.72;;;18.25;67.42
65832;BME280;52593;42.648;23.332;2023-09-19T07:05:47;94843.97;;;17.99;68.14
65832;BME280;52593;42.648;23.332;2023-09-19T07:08:13;94844.59;;;18.20;67.99
65832;BME280;52593;42.648;23.332;2023-09-19T07:10:40;94852.56;;;18.15;68.26
65832;BME280;52593;42.648;23.332;2023-09-19T07:13:07;94858.69;;;18.04;68.76
65832;BME280;52593;42.648;23.332;2023-09-19T07:15:36;94846.75;;;18.11;68.70
65832;BME280;52593;42.648;23.332;2023-09-19T07:18:05;94855.41;;;18.20;67.75
65832;BME280;52593;42.648;23.332;2023-09-19T07:20:31;94850.59;;;18.22;67.88
65832;BME280;52593;42.648;23.332;2023-09-19T07:22:58;94851.50;;;18.34;68.09
65832;BME280;52593;42.648;23.332;2023-09-19T07:25:29;94854.16;;;18.23;68.18
65832;BME280;52593;42.648;23.332;2023-09-19T07:27:56;94846.13;;;17.91;68.70
65832;BME280;52593;42.648;23.332;2023-09-19T07:30:22;94852.75;;;17.95;68.57
65832;BME280;52593;42.648;23.332;2023-09-19T07:32:47;94852.31;;;17.98;68.74
65832;BME280;52593;42.648;23.332;2023-09-19T07:35:13;94859.75;;;18.03;68.20
65832;BME280;52593;42.648;23.332;2023-09-19T07:37:40;94845.34;;;18.09;68.42
65832;BME280;52593;42.648;23.332;2023-09-19T07:40:06;94854.28;;;18.09;68.83
65832;BME280;52593;42.648;23.332;2023-09-19T07:42:35;94849.19;;;18.20;68.93
65832;BME280;52593;42.648;23.332;2023-09-19T07:45:02;94846.31;;;18.33;68.22
65832;BME280;52593;42.648;23.332;2023-09-19T07:47:28;94844.97;;;18.42;67.26
65832;BME280;52593;42.648;23.332;2023-09-19T07:49:55;94852.06;;;18.62;66.67
65832;BME280;52593;42.648;23.332;2023-09-19T07:52:20;94854.03;;;18.73;66.06
65832;BME280;52593;42.648;23.332;2023-09-19T07:54:47;94851.16;;;18.68;66.36
65832;BME280;52593;42.648;23.332;2023-09-19T07:57:15;94853.72;;;18.63;66.37
65832;BME280;52593;42.648;23.332;2023-09-19T07:59:41;94858.47;;;18.67;67.52
65832;BME280;52593;42.648;23.332;2023-09-19T08:02:08;94856.81;;;18.85;65.82
65832;BME280;52593;42.648;23.332;2023-09-19T08:04:42;94854.03;;;18.54;66.85
65832;BME280;52593;42.648;23.332;2023-09-19T08:07:07;94865.38;;;18.63;66.53
65832;BME280;52593;42.648;23.332;2023-09-19T08:09:34;94848.06;;;18.64;66.41
65832;BME280;52593;42.648;23.332;2023-09-19T08:12:00;94847.97;;;18.71;66.41
65832;BME280;52593;42.648;23.332;2023-09-19T08:14:30;94843.19;;;18.73;67.32
65832;BME280;52593;42.648;23.332;2023-09-19T08:16:58;94835.31;;;18.83;67.09
65832;BME280;52593;42.648;23.332;2023-09-19T08:19:24;94834.41;;;19.08;65.09
65832;BME280;52593;42.648;23.332;2023-09-19T08:21:58;94832.84;;;19.00;64.76
65832;BME280;52593;42.648;23.332;2023-09-19T08:24:30;94829.47;;;18.86;65.53
65832;BME280;52593;42.648;23.332;2023-09-19T08:26:56;94828.94;;;18.96;65.38
65832;BME280;52593;42.648;23.332;2023-09-19T08:29:23;94823.72;;;19.13;65.71
65832;BME280;52593;42.648;23.332;2023-09-19T08:31:55;94816.78;;;19.29;64.91
65832;BME280;52593;42.648;23.332;2023-09-19T08:34:22;94831.19;;;19.30;65.67
65832;BME280;52593;42.648;23.332;2023-09-19T08:36:53;94835.94;;;19.46;64.93
65832;BME280;52593;42.648;23.332;2023-09-19T08:39:25;94837.06;;;19.69;62.80
65832;BME280;52593;42.648;23.332;2023-09-19T08:41:57;94832.19;;;19.47;63.83
65832;BME280;52593;42.648;23.332;2023-09-19T08:44:24;94840.56;;;19.46;65.45
65832;BME280;52593;42.648;23.332;2023-09-19T08:46:54;94833.63;;;19.50;64.41
65832;BME280;52593;42.648;23.332;2023-09-19T08:49:26;94835.41;;;19.68;64.47
65832;BME280;52593;42.648;23.332;2023-09-19T08:52:20;94827.34;;;19.91;62.40
65832;BME280;52593;42.648;23.332;2023-09-19T08:54:48;94829.22;;;20.03;62.39
65832;BME280;52593;42.648;23.332;2023-09-19T08:57:16;94814.59;;;20.04;61.72
65832;BME280;52593;42.648;23.332;2023-09-19T08:59:47;94820.25;;;20.14;61.50
65832;BME280;52593;42.648;23.332;2023-09-19T09:02:15;94817.06;;;20.17;62.06
65832;BME280;52593;42.648;23.332;2023-09-19T09:04:41;94816.59;;;20.20;61.10
65832;BME280;52593;42.648;23.332;2023-09-19T09:07:12;94811.72;;;20.22;61.53
65832;BME280;52593;42.648;23.332;2023-09-19T09:09:42;94815.97;;;20.30;61.93
65832;BME280;52593;42.648;23.332;2023-09-19T09:12:13;94808.53;;;20.49;61.00
65832;BME280;52593;42.648;23.332;2023-09-19T09:14:47;94818.44;;;20.67;60.36
65832;BME280;52593;42.648;23.332;2023-09-19T09:17:17;94815.22;;;20.70;60.35
65832;BME280;52593;42.648;23.332;2023-09-19T09:19:46;94814.38;;;20.81;60.12
65832;BME280;52593;42.648;23.332;2023-09-19T09:22:12;94798.06;;;20.81;61.19
65832;BME280;52593;42.648;23.332;2023-09-19T09:24:53;94795.69;;;20.85;60.99
65832;BME280;52593;42.648;23.332;2023-09-19T09:27:20;94800.94;;;21.03;60.43
65832;BME280;52593;42.648;23.332;2023-09-19T09:29:50;94791.47;;;21.35;58.36
65832;BME280;52593;42.648;23.332;2023-09-19T09:32:29;94789.84;;;21.51;57.29
65832;BME280;52593;42.648;23.332;2023-09-19T09:35:00;94787.34;;;21.03;58.69
65832;BME280;52593;42.648;23.332;2023-09-19T09:37:27;94788.72;;;21.18;58.59
65832;BME280;52593;42.648;23.332;2023-09-19T09:39:57;94783.44;;;21.28;57.84
65832;BME280;52593;42.648;23.332;2023-09-19T09:42:34;94781.69;;;20.93;58.63
65832;BME280;52593;42.648;23.332;2023-09-19T09:47:47;94772.38;;;21.18;59.66
65832;BME280;52593;42.648;23.332;2023-09-19T09:50:36;94768.63;;;21.53;58.68
65832;BME280;52593;42.648;23.332;2023-09-19T09:53:27;94762.13;;;21.88;57.31
65832;BME280;52593;42.648;23.332;2023-09-19T09:56:04;94758.75;;;22.20;55.35
65832;BME280;52593;42.648;23.332;2023-09-19T09:58:35;94757.75;;;22.43;54.94
65832;BME280;52593;42.648;23.332;2023-09-19T10:01:04;94752.44;;;22.53;53.98
65832;BME280;52593;42.648;23.332;2023-09-19T10:03:41;94759.78;;;22.14;55.26
65832;BME280;52593;42.648;23.332;2023-09-19T10:06:14;94749.53;;;22.21;55.28
65832;BME280;52593;42.648;23.332;2023-09-19T10:09:20;94760.59;;;22.14;56.84
65832;BME280;52593;42.648;23.332;2023-09-19T10:12:04;94760.72;;;22.02;56.73
65832;BME280;52593;42.648;23.332;2023-09-19T10:14:36;94760.06;;;21.95;57.14
65832;BME280;52593;42.648;23.332;2023-09-19T10:17:05;94758.06;;;22.07;57.47
65832;BME280;52593;42.648;23.332;2023-09-19T10:19:46;94758.50;;;22.21;56.43
65832;BME280;52593;42.648;23.332;2023-09-19T10:22:17;94754.75;;;22.44;55.27
65832;BME280;52593;42.648;23.332;2023-09-19T10:24:48;94752.13;;;22.50;53.66
65832;BME280;52593;42.648;23.332;2023-09-19T10:27:16;94749.06;;;22.46;55.36
65832;BME280;52593;42.648;23.332;2023-09-19T10:29:44;94751.97;;;22.39;53.80
65832;BME280;52593;42.648;23.332;2023-09-19T10:32:14;94752.28;;;22.43;53.98
65832;BME280;52593;42.648;23.332;2023-09-19T10:34:47;94743.34;;;22.48;54.35
65832;BME280;52593;42.648;23.332;2023-09-19T10:37:16;94742.97;;;22.22;54.46
65832;BME280;52593;42.648;23.332;2023-09-19T10:39:47;94743.41;;;22.14;55.69
65832;BME280;52593;42.648;23.332;2023-09-19T10:42:20;94742.56;;;22.30;54.78
65832;BME280;52593;42.648;23.332;2023-09-19T10:44:51;94741.94;;;22.06;54.45
65832;BME280;52593;42.648;23.332;2023-09-19T10:47:19;94743.06;;;21.71;55.71
65832;BME280;52593;42.648;23.332;2023-09-19T10:49:46;94739.78;;;21.69;56.36
65832;BME280;52593;42.648;23.332;2023-09-19T10:52:14;94728.19;;;21.45;56.60
65832;BME280;52593;42.648;23.332;2023-09-19T10:54:46;94734.81;;;21.49;56.85
65832;BME280;52593;42.648;23.332;2023-09-19T10:57:19;94734.44;;;21.45;56.56
65832;BME280;52593;42.648;23.332;2023-09-19T11:00:06;94728.47;;;21.60;56.79
65832;BME280;52593;42.648;23.332;2023-09-19T11:05:37;94730.50;;;21.70;56.40
65832;BME280;52593;42.648;23.332;2023-09-19T11:08:07;94724.56;;;21.90;57.38
65832;BME280;52593;42.648;23.332;2023-09-19T11:10:45;94732.81;;;21.95;56.48
65832;BME280;52593;42.648;23.332;2023-09-19T11:13:24;94722.31;;;22.26;55.21
65832;BME280;52593;42.648;23.332;2023-09-19T11:26:47;94717.56;;;22.83;52.72
65832;BME280;52593;42.648;23.332;2023-09-19T11:29:32;94707.66;;;22.71;52.80
65832;BME280;52593;42.648;23.332;2023-09-19T11:31:58;94698.84;;;22.64;53.47
65832;BME280;52593;42.648;23.332;2023-09-19T11:37:02;94690.84;;;22.57;52.77
65832;BME280;52593;42.648;23.332;2023-09-19T11:39:30;94680.13;;;22.73;52.75
65832;BME280;52593;42.648;23.332;2023-09-19T11:41:56;94679.38;;;22.55;52.43
65832;BME280;52593;42.648;23.332;2023-09-19T11:44:33;94680.88;;;22.68;52.97
65832;BME280;52593;42.648;23.332;2023-09-19T11:47:04;94670.50;;;22.65;52.85
65832;BME280;52593;42.648;23.332;2023-09-19T11:49:31;94670.75;;;22.64;53.41
65832;BME280;52593;42.648;23.332;2023-09-19T11:52:02;94661.16;;;22.88;52.98
65832;BME280;52593;42.648;23.332;2023-09-19T11:54:31;94659.03;;;22.95;52.32
65832;BME280;52593;42.648;23.332;2023-09-19T11:56:58;94657.31;;;23.11;51.04
65832;BME280;52593;42.648;23.332;2023-09-19T11:59:26;94662.63;;;23.23;52.76
65832;BME280;52593;42.648;23.332;2023-09-19T12:02:05;94658.06;;;23.34;51.94
65832;BME280;52593;42.648;23.332;2023-09-19T12:04:38;94666.47;;;23.65;50.22
65832;BME280;52593;42.648;23.332;2023-09-19T12:07:08;94663.06;;;23.85;50.01
65832;BME280;52593;42.648;23.332;2023-09-19T12:10:03;94656.09;;;24.04;50.42
65832;BME280;52593;42.648;23.332;2023-09-19T12:12:29;94647.03;;;23.61;50.24
65832;BME280;52593;42.648;23.332;2023-09-19T12:14:57;94651.53;;;23.78;49.74
65832;BME280;52593;42.648;23.332;2023-09-19T12:17:23;94637.97;;;23.93;49.30
65832;BME280;52593;42.648;23.332;2023-09-19T12:19:53;94643.59;;;23.76;50.93
65832;BME280;52593;42.648;23.332;2023-09-19T12:22:19;94642.22;;;23.74;50.35
65832;BME280;52593;42.648;23.332;2023-09-19T12:24:48;94631.44;;;23.57;52.91
65832;BME280;52593;42.648;23.332;2023-09-19T12:27:13;94633.97;;;23.68;51.81
65832;BME280;52593;42.648;23.332;2023-09-19T12:29:49;94630.09;;;23.97;51.57
65832;BME280;52593;42.648;23.332;2023-09-19T12:32:15;94624.25;;;24.51;48.82
65832;BME280;52593;42.648;23.332;2023-09-19T12:34:52;94614.47;;;24.61;48.09
65832;BME280;52593;42.648;23.332;2023-09-19T12:37:19;94612.72;;;24.34;48.56
65832;BME280;52593;42.648;23.332;2023-09-19T12:39:49;94610.31;;;24.43;48.93
65832;BME280;52593;42.648;23.332;2023-09-19T12:42:18;94606.28;;;24.76;48.92
65832;BME280;52593;42.648;23.332;2023-09-19T12:44:46;94612.09;;;25.05;47.13
65832;BME280;52593;42.648;23.332;2023-09-19T12:47:16;94600.31;;;25.36;47.81
65832;BME280;52593;42.648;23.332;2023-09-19T12:50:17;94606.31;;;25.69;45.44
65832;BME280;52593;42.648;23.332;2023-09-19T12:52:49;94604.06;;;25.86;45.23
65832;BME280;52593;42.648;23.332;2023-09-19T12:55:31;94612.50;;;26.10;45.13
65832;BME280;52593;42.648;23.332;2023-09-19T13:00:32;94598.06;;;26.55;44.62
65832;BME280;52593;42.648;23.332;2023-09-19T13:05:58;94602.34;;;26.76;43.68
65832;BME280;52593;42.648;23.332;2023-09-19T13:11:01;94589.22;;;27.08;42.64
65832;BME280;52593;42.648;23.332;2023-09-19T13:13:27;94587.25;;;27.48;42.08
65832;BME280;52593;42.648;23.332;2023-09-19T13:15:53;94584.03;;;27.94;41.20
65832;BME280;52593;42.648;23.332;2023-09-19T13:18:19;94586.53;;;28.63;39.64
65832;BME280;52593;42.648;23.332;2023-09-19T13:21:05;94580.91;;;29.58;38.17
65832;BME280;52593;42.648;23.332;2023-09-19T13:23:31;94579.88;;;30.42;36.77
65832;BME280;52593;42.648;23.332;2023-09-19T13:25:56;94574.47;;;31.02;35.46
65832;BME280;52593;42.648;23.332;2023-09-19T13:28:22;94567.22;;;31.37;34.16
65832;BME280;52593;42.648;23.332;2023-09-19T13:30:47;94565.19;;;31.74;34.03
65832;BME280;52593;42.648;23.332;2023-09-19T13:33:13;94568.50;;;31.85;33.74